Aktuální počasí v Česku a ve světě - METAR

Seznam meteostanic umístěných nejčasteji na letišti v ČR a ve světě

Vyhledat místa podle abecedy:
A B C D E F G H I J K L M N O P Q R S T U V W X Y Z

Filtrovat:

ID stanice:
a/nebo
Název místa (fulltext):
 
Místo (ID)Naposledy načteno 
Wake Island (PWAK) 25.02.2021 01:58 UTC Zobrazit METAR
PWAK 250158Z AUTO 13006KT 9999 SCT024 29/22 A2988 RMK AO2 SLP124 T02880219 $
Warsaw (EPWA) 25.02.2021 02:00 UTC Zobrazit METAR
EPWA 250200Z 13002KT 7000 MIFG NSC 01/01 Q1029 NOSIG
Washington (KIAD) 25.02.2021 01:52 UTC Zobrazit METAR
KIAD 250152Z 20009KT 10SM FEW100 13/00 A2983 RMK AO2 SLP102 T01280000
Wellington (NZWN) 25.02.2021 02:00 UTC Zobrazit METAR
NZWN 250200Z AUTO 18009KT 4100 RA BR BKN006/// BKN013/// 16/16 Q1023 BECMG 9999 -RA SCT006 BKN013 TEMPO 5000 RA BKN004
Windhoek (FYWH) 24.02.2021 18:00 UTC Zobrazit METAR
FYWH 241800Z 18006KT CAVOK 23/13 Q1019 NOSIG
Wroclaw (EPWR) 25.02.2021 02:00 UTC Zobrazit METAR
EPWR 250200Z 12003KT CAVOK 03/01 Q1030
Reklama

Reklama


Počasí na Váš email

Emaily jsou bez reklamy a bez spamu



Odhlásit newsletter


Další české internetové stránky (nejen) o počasí najdete v katalogu TOPlist - weby o počasí nebo vyhledejte na internetu, co jste tu na 🌞 Slunečnu ⛅ zatím nenašli:
⭐ Přidat Slunečno.cz do oblíbených | 🏠 Nastavit Slunečno.cz jako HOMEPAGE

⬆️ Posunout stránku nahoru ⬆️
Reklama